Sitka Rocky Gutierrez Airport
PASI : now visible

Airfield :











YOU CAN JOIN US ON...

 
LOGIN :

Register | Disclaimer

   EN    FR    IT 

 









Legend :    VFR   Marginal VFR   IFR   Intensive IFR   Very Intensive IFR
Visi :
Ceiling :
>= 8 km
>= 3000ft
5 to 8 km
1000 to 3000 ft
1500m to 5 km
500 to 1000 ft
800 to 1500m
200 to 500 ft
< 800m
< 200 ft
Symbols :   Thunderstorms  Fog  Heavy snow  Heavy precipitations  Wind > 20 kt






- Airport Elevation : 21 ft
- IATA code : SIT


PASI - Sitka Rocky Gutierrez

CURRENT METAR :
  • 101253Z 00000KT 10SM SCT050 M02/M04 A3040 RMK AO2 SLP293 T10171039

EXPIRED METARs :
  • 101153Z 11003KT 10SM FEW050 00/M03 A3040 RMK AO2 SLP294 T00001033 10039 21011 53007
  • 101053Z 09004KT 10SM SCT050 M01/M03 A3039 RMK AO2 SLP290 T10061033
  • 100953Z 12003KT 10SM SCT050 01/M03 A3039 RMK AO2 SLP289 T00061028

TAF PASI
Valid from the 10 at 12:00 until the 11 at 12:00 UTC


101135Z 1012/1112 VRB04KT P6SM SCT050
FM102000 32012KT P6SM SKC



MET'MAP, your aeronautical weather chart ! - Copyright ORBIFLY December 2007 - Disclaimer

ORBIFLY MET'MAP TEAM :

Programming & Development : Alexandra Zaïnal
Concept & original design : Baudouin d'Aumeries
Assistance for programming : Marc-Olivier Méhu
Technical & hardware support : Manuel Goepfert

Contact : metmap@orbifly.com




SOURCES & CREDITS :

   NOAA       Earth
Advisory